Time;durP1;ratioP1;P1;durP2;ratioP2;P2;SDS_P1;SDS_P2;PMS_P1;PMS_P2;Temp;Humidity;BMP_temperature;BMP_pressure;BME280_temperature;BME280_humidity;BME280_pressure;Samples;Min_cycle;Max_cycle;Signal;HPM_P1;HPM_P2
2023/07/13 00:01:30;;;;;;;17.00;3.05;;;;;;;-143.49;100.00;65027.28;5095490;28;20467;-70
2023/07/13 00:03:56;;;;;;;24.30;3.88;;;;;;;-143.49;100.00;65027.28;5095334;28;20024;-70
2023/07/13 00:06:22;;;;;;;19.90;3.92;;;;;;;-143.49;100.00;65027.28;5095199;28;20393;-70
2023/07/13 00:08:48;;;;;;;21.48;3.40;;;;;;;-143.49;100.00;65027.28;5095176;28;20127;-70
2023/07/13 00:11:14;;;;;;;22.23;3.72;;;;;;;-143.49;100.00;65027.28;5095093;28;20375;-70
2023/07/13 00:13:42;;;;;;;16.88;3.38;;;;;;;-143.49;100.00;65027.28;5095147;28;20050;-70
2023/07/13 00:16:08;;;;;;;15.65;3.40;;;;;;;-143.49;100.00;65027.28;5095154;28;20040;-70
2023/07/13 00:18:33;;;;;;;19.23;2.90;;;;;;;-143.49;100.00;65027.28;5076783;28;20020;-71
2023/07/13 00:21:05;;;;;;;21.30;3.33;;;;;;;-143.49;100.00;65027.28;5076971;28;20016;-70
2023/07/13 00:23:40;;;;;;;24.60;3.15;;;;;;;-143.49;100.00;65027.28;5076856;28;20451;-70
2023/07/13 00:26:07;;;;;;;18.35;3.17;;;;;;;-143.49;100.00;65027.28;5076850;28;20020;-70
2023/07/13 00:28:33;;;;;;;22.83;3.25;;;;;;;-143.49;100.00;65027.28;5094925;28;20028;-70
2023/07/13 00:30:59;;;;;;;20.25;3.28;;;;;;;-143.49;100.00;65027.28;5094878;28;20028;-69
2023/07/13 00:33:26;;;;;;;16.88;3.05;;;;;;;-143.49;100.00;65027.28;5076601;28;20023;-69
2023/07/13 00:35:54;;;;;;;20.75;3.00;;;;;;;-143.49;100.00;65027.28;5094660;28;20049;-70
2023/07/13 00:38:19;;;;;;;13.73;3.10;;;;;;;-143.49;100.00;65027.28;5076468;28;20032;-70
2023/07/13 00:40:45;;;;;;;22.30;3.30;;;;;;;-143.49;100.00;65027.28;5094816;28;20020;-69
2023/07/13 00:43:16;;;;;;;24.08;3.15;;;;;;;-143.49;100.00;65027.28;5094656;28;20032;-70
2023/07/13 00:45:45;;;;;;;17.48;3.00;;;;;;;-143.49;100.00;65027.28;5094594;28;20024;-71
2023/07/13 00:48:18;;;;;;;15.27;2.67;;;;;;;-143.49;100.00;65027.28;5094534;28;20085;-70
2023/07/13 00:50:46;;;;;;;15.70;3.20;;;;;;;-143.49;100.00;65027.28;5075911;28;20075;-71
2023/07/13 00:53:13;;;;;;;19.45;3.83;;;;;;;-143.49;100.00;65027.28;5076191;28;20073;-71
2023/07/13 00:55:39;;;;;;;22.70;3.63;;;;;;;-143.49;100.00;65027.28;5094284;28;20024;-71
2023/07/13 00:58:06;;;;;;;13.65;2.88;;;;;;;-143.49;100.00;65027.28;5094294;28;20030;-71
2023/07/13 01:00:36;;;;;;;16.55;3.17;;;;;;;-143.49;100.00;65027.28;5094255;28;20069;-71
2023/07/13 01:03:04;;;;;;;17.05;3.13;;;;;;;-143.49;100.00;65027.28;5076018;28;20032;-71
2023/07/13 01:05:31;;;;;;;12.90;2.78;;;;;;;-143.49;100.00;65027.28;5076009;28;20030;-71
2023/07/13 01:07:58;;;;;;;14.25;3.00;;;;;;;-143.49;100.00;65027.28;5094034;28;20048;-71
2023/07/13 01:10:25;;;;;;;15.02;3.30;;;;;;;-143.49;100.00;65027.28;5093963;28;20028;-70
2023/07/13 01:12:50;;;;;;;13.50;3.17;;;;;;;-143.49;100.00;65027.28;5094081;28;20030;-70
2023/07/13 01:15:36;;;;;;;14.95;2.70;;;;;;;-143.49;100.00;65027.28;5093961;28;20024;-70
2023/07/13 01:18:02;;;;;;;16.90;2.63;;;;;;;-143.49;100.00;65027.28;5093933;28;20395;-70
2023/07/13 01:20:27;;;;;;;18.30;3.65;;;;;;;-143.49;100.00;65027.28;5075607;28;20023;-70
2023/07/13 01:22:53;;;;;;;11.40;2.60;;;;;;;-143.49;100.00;65027.28;5093845;28;20379;-70
2023/07/13 01:25:20;;;;;;;14.90;2.83;;;;;;;-143.49;100.00;65027.28;5093841;28;20102;-70
2023/07/13 01:27:46;;;;;;;15.90;2.72;;;;;;;-143.49;100.00;65027.28;5075583;28;20016;-70
2023/07/13 01:30:12;;;;;;;13.05;2.50;;;;;;;-143.49;100.00;65027.28;5093683;28;20043;-70
2023/07/13 01:32:37;;;;;;;9.77;2.40;;;;;;;-143.49;100.00;65027.28;5075447;28;20498;-70
2023/07/13 01:35:03;;;;;;;13.57;2.83;;;;;;;-143.49;100.00;65027.28;5093640;28;20073;-70
2023/07/13 01:37:33;;;;;;;11.90;2.15;;;;;;;-143.49;100.00;65027.28;5075328;28;20258;-70
2023/07/13 01:39:59;;;;;;;16.40;2.70;;;;;;;-143.49;100.00;65027.28;5093530;28;20099;-70
2023/07/13 01:42:24;;;;;;;12.48;2.53;;;;;;;-143.49;100.00;65027.28;5093477;28;20103;-70
2023/07/13 01:44:49;;;;;;;10.18;2.67;;;;;;;-143.49;100.00;65027.28;5093634;28;20030;-70
2023/07/13 01:47:15;;;;;;;15.70;2.83;;;;;;;-143.49;100.00;65027.28;5093524;28;20024;-70
2023/07/13 01:49:41;;;;;;;10.75;2.72;;;;;;;-143.49;100.00;65027.28;5093422;28;20023;-70
2023/07/13 01:52:06;;;;;;;13.30;2.63;;;;;;;-143.49;100.00;65027.28;5093397;28;20055;-70
2023/07/13 01:54:33;;;;;;;11.70;2.78;;;;;;;-143.49;100.00;65027.28;5093455;28;20045;-70
2023/07/13 01:56:59;;;;;;;20.63;2.70;;;;;;;-143.49;100.00;65027.28;5093360;28;20060;-70
2023/07/13 01:59:25;;;;;;;12.88;2.72;;;;;;;-143.49;100.00;65027.28;5093284;28;20052;-71
2023/07/13 02:01:50;;;;;;;13.60;3.17;;;;;;;-143.49;100.00;65027.28;5092447;28;20525;-70
2023/07/13 02:04:15;;;;;;;15.52;2.65;;;;;;;-143.49;100.00;65027.28;5093288;28;20047;-70
2023/07/13 02:06:41;;;;;;;11.20;2.72;;;;;;;-143.49;100.00;65027.28;5093136;28;20463;-70
2023/07/13 02:09:06;;;;;;;15.65;3.00;;;;;;;-143.49;100.00;65027.28;5093282;28;20050;-70
2023/07/13 02:11:33;;;;;;;13.43;2.70;;;;;;;-143.49;100.00;65027.28;5093198;28;20020;-70
2023/07/13 02:14:03;;;;;;;15.35;3.00;;;;;;;-143.49;100.00;65027.28;5093306;28;20020;-71
2023/07/13 02:16:29;;;;;;;12.70;2.78;;;;;;;-143.49;100.00;65027.28;5093126;28;20471;-71
2023/07/13 02:18:55;;;;;;;17.27;3.28;;;;;;;-143.49;100.00;65027.28;5093146;28;20024;-71
2023/07/13 02:21:21;;;;;;;16.42;2.97;;;;;;;-143.49;100.00;65027.28;5093120;28;20024;-70
2023/07/13 02:23:46;;;;;;;12.77;2.83;;;;;;;-143.49;100.00;65027.28;5093355;28;20491;-70
2023/07/13 02:26:13;;;;;;;20.38;3.60;;;;;;;-143.49;100.00;65027.28;5075086;28;20032;-71
2023/07/13 02:28:38;;;;;;;22.77;3.20;;;;;;;-143.49;100.00;65027.28;5093046;28;20039;-70
2023/07/13 02:31:11;;;;;;;15.88;3.38;;;;;;;-143.49;100.00;65027.28;5074816;28;20024;-70
2023/07/13 02:33:37;;;;;;;19.08;3.50;;;;;;;-143.49;100.00;65027.28;5074889;28;20119;-70
2023/07/13 02:36:03;;;;;;;15.48;3.20;;;;;;;-143.49;100.00;65027.28;5092944;28;20100;-70
2023/07/13 02:38:28;;;;;;;20.73;3.47;;;;;;;-143.49;100.00;65027.28;5093100;28;20024;-70
2023/07/13 02:40:54;;;;;;;13.55;3.33;;;;;;;-143.49;100.00;65027.28;5093161;28;20074;-70
2023/07/13 02:43:19;;;;;;;16.83;3.45;;;;;;;-143.49;100.00;65027.28;5074789;28;20022;-70
2023/07/13 02:45:45;;;;;;;20.25;3.45;;;;;;;-143.49;100.00;65027.28;5093105;28;20039;-70
2023/07/13 02:48:11;;;;;;;16.77;3.22;;;;;;;-143.49;100.00;65027.28;5092765;28;20024;-70
2023/07/13 02:50:36;;;;;;;13.68;3.05;;;;;;;-143.49;100.00;65027.28;5074626;28;20077;-70
2023/07/13 02:53:01;;;;;;;12.98;2.95;;;;;;;-143.49;100.00;65027.28;5074696;28;20028;-70
2023/07/13 02:55:27;;;;;;;18.85;3.30;;;;;;;-143.49;100.00;65027.28;5092811;28;20102;-70
2023/07/13 02:57:54;;;;;;;16.20;3.10;;;;;;;-143.49;100.00;65027.28;5074608;28;20020;-70
2023/07/13 03:00:19;;;;;;;15.55;3.28;;;;;;;-143.49;100.00;65027.28;5092701;28;20471;-70
2023/07/13 03:02:45;;;;;;;16.17;3.00;;;;;;;-143.49;100.00;65027.28;5092735;28;20032;-70
2023/07/13 03:05:12;;;;;;;14.00;2.97;;;;;;;-143.49;100.00;65027.28;5092729;28;20024;-71
2023/07/13 03:07:38;;;;;;;17.17;3.67;;;;;;;-143.49;100.00;65027.28;5074296;28;20047;-70
2023/07/13 03:10:04;;;;;;;13.85;3.08;;;;;;;-143.49;100.00;65027.28;5074375;28;20017;-70
2023/07/13 03:12:30;;;;;;;13.43;2.95;;;;;;;-143.49;100.00;65027.28;5075685;28;20035;-70
2023/07/13 03:14:55;;;;;;;14.90;2.58;;;;;;;-143.49;100.00;65027.28;5078137;28;20030;-70
2023/07/13 03:17:21;;;;;;;16.35;2.85;;;;;;;-143.49;100.00;65027.28;5078068;28;20390;-70
2023/07/13 03:19:49;;;;;;;13.60;2.63;;;;;;;-143.49;100.00;65027.28;5096167;28;20019;-70
2023/07/13 03:22:16;;;;;;;11.32;2.45;;;;;;;-143.49;100.00;65027.28;5096244;28;20418;-70
2023/07/13 03:24:41;;;;;;;8.30;2.13;;;;;;;-143.49;100.00;65027.28;5096148;28;20016;-70
2023/07/13 03:27:08;;;;;;;11.10;2.47;;;;;;;-143.49;100.00;65027.28;5096126;28;20429;-70
2023/07/13 03:29:33;;;;;;;10.15;2.13;;;;;;;-143.49;100.00;65027.28;5077791;28;20526;-70
2023/07/13 03:31:58;;;;;;;14.60;2.50;;;;;;;-143.49;100.00;65027.28;5095982;28;20107;-70
2023/07/13 03:34:24;;;;;;;7.88;2.15;;;;;;;-143.49;100.00;65027.28;5095875;28;20067;-69
2023/07/13 03:36:49;;;;;;;13.05;2.50;;;;;;;-143.49;100.00;65027.28;5095897;28;20024;-70
2023/07/13 03:39:15;;;;;;;13.15;2.50;;;;;;;-143.49;100.00;65027.28;5096008;28;20026;-71
2023/07/13 03:41:40;;;;;;;12.23;2.33;;;;;;;-143.49;100.00;65027.28;5095787;28;20118;-71
2023/07/13 03:44:06;;;;;;;14.73;2.75;;;;;;;-143.49;100.00;65027.28;5095778;28;20070;-71
2023/07/13 03:46:33;;;;;;;9.65;2.30;;;;;;;-143.49;100.00;65027.28;5077626;28;20028;-70
2023/07/13 03:48:58;;;;;;;13.77;2.70;;;;;;;-143.49;100.00;65027.28;5095707;28;20360;-70
2023/07/13 03:51:24;;;;;;;12.00;2.65;;;;;;;-143.49;100.00;65027.28;5095448;28;20085;-71
2023/07/13 03:53:49;;;;;;;13.43;2.35;;;;;;;-143.49;100.00;65027.28;5095864;28;20453;-70
2023/07/13 03:56:17;;;;;;;14.50;3.00;;;;;;;-143.49;100.00;65027.28;5095573;28;20024;-71
2023/07/13 03:58:45;;;;;;;17.20;3.28;;;;;;;-143.49;100.00;65027.28;5095180;28;20389;-70
2023/07/13 04:01:12;;;;;;;13.73;2.97;;;;;;;-143.49;100.00;65027.28;5076136;28;20024;-69
2023/07/13 04:03:38;;;;;;;17.83;3.03;;;;;;;-143.49;100.00;65027.28;5095331;28;20463;-70
2023/07/13 04:06:07;;;;;;;15.80;3.05;;;;;;;-143.49;100.00;65027.28;5095362;28;20054;-70
2023/07/13 04:08:35;;;;;;;18.90;3.67;;;;;;;-143.49;100.00;65027.28;5095076;28;20047;-70
2023/07/13 04:11:02;;;;;;;14.95;2.95;;;;;;;-143.49;100.00;65027.28;5095429;28;20028;-70
2023/07/13 04:13:27;;;;;;;17.55;3.30;;;;;;;-143.49;100.00;65027.28;5077069;28;20031;-69
2023/07/13 04:15:53;;;;;;;16.13;3.00;;;;;;;-143.49;100.00;65027.28;5094516;28;20024;-70
2023/07/13 04:18:19;;;;;;;13.57;3.05;;;;;;;-143.49;100.00;65027.28;5077118;28;20055;-69
2023/07/13 04:20:46;;;;;;;14.27;3.28;;;;;;;-143.49;100.00;65027.28;5076964;28;20028;-71
2023/07/13 04:23:12;;;;;;;19.15;3.20;;;;;;;-143.49;100.00;65027.28;5076699;28;20476;-69
2023/07/13 04:25:37;;;;;;;15.90;3.00;;;;;;;-143.49;100.00;65027.28;5094427;28;20031;-70
2023/07/13 04:28:04;;;;;;;13.75;2.83;;;;;;;-143.49;100.00;65027.28;5076897;28;20024;-70
2023/07/13 04:30:29;;;;;;;17.30;3.10;;;;;;;-143.49;100.00;65027.28;5076604;28;20123;-70
2023/07/13 04:32:54;;;;;;;12.90;2.88;;;;;;;-143.49;100.00;65027.28;5094781;28;20104;-70
2023/07/13 04:35:20;;;;;;;15.38;2.95;;;;;;;-143.49;100.00;65027.28;5094783;28;20024;-69
2023/07/13 04:37:48;;;;;;;14.77;3.22;;;;;;;-143.49;100.00;65027.28;5094633;28;20447;-70
2023/07/13 04:40:14;;;;;;;15.48;3.05;;;;;;;-143.49;100.00;65027.28;5094650;28;20047;-70
2023/07/13 04:42:39;;;;;;;18.65;3.60;;;;;;;-143.49;100.00;65027.28;5095154;28;20064;-70
2023/07/13 04:45:07;;;;;;;18.17;3.17;;;;;;;-143.49;100.00;65027.28;5095638;28;20364;-71
2023/07/13 04:47:32;;;;;;;18.25;3.20;;;;;;;-143.49;100.00;65027.28;5094518;28;20024;-70
2023/07/13 04:49:58;;;;;;;16.40;3.10;;;;;;;-143.49;100.00;65027.28;5094421;28;20436;-70
2023/07/13 04:52:24;;;;;;;12.80;3.53;;;;;;;-143.49;100.00;65027.28;5094691;28;20052;-71
2023/07/13 04:54:49;;;;;;;20.02;3.90;;;;;;;-143.49;100.00;65027.28;5094126;28;20064;-70
2023/07/13 04:57:15;;;;;;;18.38;3.75;;;;;;;-143.49;100.00;65027.28;5076047;28;20069;-71
2023/07/13 04:59:40;;;;;;;19.13;4.22;;;;;;;-143.49;100.00;65027.28;5094215;28;20044;-70
2023/07/13 05:02:06;;;;;;;21.90;4.57;;;;;;;-143.49;100.00;65027.28;5094123;28;20023;-70
2023/07/13 05:04:31;;;;;;;22.98;4.10;;;;;;;-143.49;100.00;65027.28;5075892;28;20028;-70
2023/07/13 05:06:56;;;;;;;14.90;3.78;;;;;;;-143.49;100.00;65027.28;5094174;28;20561;-70
2023/07/13 05:09:22;;;;;;;21.08;4.78;;;;;;;-143.49;100.00;65027.28;5093899;28;20063;-70
2023/07/13 05:11:47;;;;;;;18.13;4.07;;;;;;;-143.49;100.00;65027.28;5094059;28;20098;-70
2023/07/13 05:14:13;;;;;;;17.25;3.90;;;;;;;-143.49;100.00;65027.28;5093919;28;20020;-70
2023/07/13 05:16:38;;;;;;;19.10;3.83;;;;;;;-143.49;100.00;65027.28;5093793;28;20111;-70
2023/07/13 05:19:04;;;;;;;22.25;4.05;;;;;;;-143.49;100.00;65027.28;5093923;28;20038;-70
2023/07/13 05:21:29;;;;;;;18.23;4.50;;;;;;;-143.49;100.00;65027.28;5093763;28;20204;-70
2023/07/13 05:23:56;;;;;;;19.58;4.90;;;;;;;-143.49;100.00;65027.28;5093697;28;20429;-70
2023/07/13 05:26:21;;;;;;;26.30;5.32;;;;;;;-143.49;100.00;65027.28;5093736;28;20035;-70
2023/07/13 05:28:47;;;;;;;20.83;4.38;;;;;;;-143.49;100.00;65027.28;5093789;28;20380;-70
2023/07/13 05:31:13;;;;;;;23.02;4.40;;;;;;;-143.49;100.00;65027.28;5075626;28;20499;-70
2023/07/13 05:33:39;;;;;;;21.63;4.65;;;;;;;-143.49;100.00;65027.28;5075530;28;20020;-70
2023/07/13 05:36:05;;;;;;;19.08;4.38;;;;;;;-143.49;100.00;65027.28;5092610;28;20028;-71
2023/07/13 05:38:31;;;;;;;27.15;4.68;;;;;;;-143.49;100.00;65027.28;5093644;28;20031;-71
2023/07/13 05:40:58;;;;;;;23.27;4.65;;;;;;;-143.49;100.00;65027.28;5093531;28;20415;-70
2023/07/13 05:43:24;;;;;;;19.65;4.30;;;;;;;-143.49;100.00;65027.28;5093502;28;20058;-70
2023/07/13 05:45:53;;;;;;;18.88;4.10;;;;;;;-143.49;100.00;65027.28;5093473;28;20482;-70
2023/07/13 05:48:18;;;;;;;23.30;4.53;;;;;;;-143.49;100.00;65027.28;5093071;28;20032;-71
2023/07/13 05:50:43;;;;;;;24.25;4.63;;;;;;;-143.49;100.00;65027.28;5093275;28;20027;-71
2023/07/13 05:53:09;;;;;;;21.17;4.65;;;;;;;-143.49;100.00;65027.28;5093413;28;20107;-70
2023/07/13 05:55:34;;;;;;;21.83;4.20;;;;;;;-143.49;100.00;65027.28;5091784;28;20020;-70
2023/07/13 05:58:01;;;;;;;21.17;4.30;;;;;;;-143.49;100.00;65027.28;5091370;28;20723;-70
2023/07/13 06:00:27;;;;;;;20.08;4.00;;;;;;;-143.49;100.00;65027.28;5091444;28;20059;-70
2023/07/13 06:02:52;;;;;;;19.52;4.25;;;;;;;-143.49;100.00;65027.28;5091395;28;20047;-71
2023/07/13 06:05:18;;;;;;;23.83;4.50;;;;;;;-143.49;100.00;65027.28;5073193;28;20028;-71
2023/07/13 06:07:44;;;;;;;20.98;4.20;;;;;;;-143.49;100.00;65027.28;5072952;28;20052;-70
2023/07/13 06:10:09;;;;;;;25.65;4.13;;;;;;;-143.49;100.00;65027.28;5092076;28;20028;-70
2023/07/13 06:12:35;;;;;;;21.63;3.88;;;;;;;-143.49;100.00;65027.28;5093051;28;20035;-71
2023/07/13 06:15:00;;;;;;;17.63;4.03;;;;;;;-143.49;100.00;65027.28;5075013;28;20031;-71
2023/07/13 06:17:26;;;;;;;16.60;4.07;;;;;;;-143.49;100.00;65027.28;5092598;28;20020;-70
2023/07/13 06:19:51;;;;;;;17.02;3.90;;;;;;;-143.49;100.00;65027.28;5074849;28;20024;-70
2023/07/13 06:22:16;;;;;;;19.15;4.78;;;;;;;-143.49;100.00;65027.28;5074958;28;20054;-70
2023/07/13 06:24:42;;;;;;;23.20;4.90;;;;;;;-143.49;100.00;65027.28;5093105;28;20024;-70
2023/07/13 06:27:07;;;;;;;22.45;4.85;;;;;;;-143.49;100.00;65027.28;5093151;28;20103;-70
2023/07/13 06:29:33;;;;;;;21.40;4.40;;;;;;;-143.49;100.00;65027.28;5074776;28;20020;-70
2023/07/13 06:31:58;;;;;;;18.02;4.85;;;;;;;-143.49;100.00;65027.28;5092971;28;20073;-71
2023/07/13 06:34:24;;;;;;;21.58;4.05;;;;;;;-143.49;100.00;65027.28;5092947;28;20032;-70
2023/07/13 06:36:49;;;;;;;17.10;4.57;;;;;;;-143.49;100.00;65027.28;5092917;28;20111;-70
2023/07/13 06:39:15;;;;;;;18.80;4.65;;;;;;;-143.49;100.00;65027.28;5092918;28;20073;-70
2023/07/13 06:41:40;;;;;;;18.23;4.13;;;;;;;-143.49;100.00;65027.28;5074786;28;20020;-71
2023/07/13 06:44:06;;;;;;;18.90;4.28;;;;;;;-143.49;100.00;65027.28;5092978;28;20031;-71
2023/07/13 06:46:32;;;;;;;18.88;4.18;;;;;;;-143.49;100.00;65027.28;5074828;28;20020;-72
2023/07/13 06:48:57;;;;;;;15.00;3.72;;;;;;;-143.49;100.00;65027.28;5096608;28;20395;-71
2023/07/13 06:51:23;;;;;;;18.92;3.90;;;;;;;-143.49;100.00;65027.28;5078584;28;20024;-71
2023/07/13 06:53:49;;;;;;;16.77;4.07;;;;;;;-143.49;100.00;65027.28;5096738;28;20514;-71
2023/07/13 06:56:15;;;;;;;20.85;4.22;;;;;;;-143.49;100.00;65027.28;5096668;28;20031;-70
2023/07/13 06:58:40;;;;;;;24.20;5.07;;;;;;;-143.49;100.00;65027.28;5078348;28;20035;-69
2023/07/13 07:01:06;;;;;;;27.38;5.78;;;;;;;-143.49;100.00;65027.28;5096494;28;20020;-69
2023/07/13 07:03:32;;;;;;;17.98;4.68;;;;;;;-143.49;100.00;65027.28;5096504;28;20549;-70
2023/07/13 07:06:17;;;;;;;23.27;5.55;;;;;;;-143.49;100.00;65027.28;5096355;28;20046;-69
2023/07/13 07:08:42;;;;;;;17.75;3.47;;;;;;;-143.49;100.00;65027.28;5077998;28;20040;-69
2023/07/13 07:11:18;;;;;;;17.77;4.22;;;;;;;-143.49;100.00;65027.28;5096207;28;20031;-68
2023/07/13 07:13:43;;;;;;;16.25;3.50;;;;;;;-143.49;100.00;65027.28;5078091;28;20115;-68
2023/07/13 07:16:09;;;;;;;10.98;2.83;;;;;;;-143.49;100.00;65027.28;5078954;28;20455;-69
2023/07/13 07:18:35;;;;;;;10.13;2.78;;;;;;;-143.49;100.00;65027.28;5096021;28;20494;-70
2023/07/13 07:21:00;;;;;;;12.23;3.22;;;;;;;-143.49;100.00;65027.28;5096295;28;20115;-70
2023/07/13 07:23:25;;;;;;;23.70;4.22;;;;;;;-143.49;100.00;65027.28;5096056;28;20055;-69
2023/07/13 07:25:51;;;;;;;12.98;3.35;;;;;;;-143.49;100.00;65027.28;5096107;28;20032;-70
2023/07/13 07:28:18;;;;;;;9.10;3.00;;;;;;;-143.49;100.00;65027.28;5096082;28;20024;-70
2023/07/13 07:30:44;;;;;;;8.38;2.42;;;;;;;-143.49;100.00;65027.28;5077647;28;20056;-70
2023/07/13 07:33:10;;;;;;;5.68;2.55;;;;;;;-143.49;100.00;65027.28;5095868;28;20035;-70
2023/07/13 07:35:35;;;;;;;7.13;2.53;;;;;;;-143.49;100.00;65027.28;5095835;28;20024;-69
2023/07/13 07:38:00;;;;;;;8.30;2.50;;;;;;;-143.49;100.00;65027.28;5077636;28;20099;-71
2023/07/13 07:40:26;;;;;;;5.70;2.40;;;;;;;-143.49;100.00;65027.28;5095810;28;20024;-70
2023/07/13 07:42:52;;;;;;;8.48;2.58;;;;;;;-143.49;100.00;65027.28;5077517;28;20483;-71
2023/07/13 07:45:17;;;;;;;8.07;2.63;;;;;;;-143.49;100.00;65027.28;5096044;28;20077;-69
2023/07/13 07:47:43;;;;;;;9.45;2.50;;;;;;;-143.49;100.00;65027.28;5077409;28;20028;-70
2023/07/13 07:50:09;;;;;;;7.63;2.80;;;;;;;-143.49;100.00;65027.28;5095474;28;20020;-71
2023/07/13 07:52:34;;;;;;;6.30;2.58;;;;;;;-143.49;100.00;65027.28;5095769;28;20434;-71
2023/07/13 07:55:00;;;;;;;9.15;2.85;;;;;;;-143.49;100.00;65027.28;5095509;28;20028;-72
2023/07/13 07:57:25;;;;;;;8.02;2.75;;;;;;;-143.49;100.00;65027.28;5095627;28;20028;-71
2023/07/13 07:59:51;;;;;;;9.15;2.63;;;;;;;-143.49;100.00;65027.28;5076238;28;20070;-71
2023/07/13 08:02:16;;;;;;;7.97;3.15;;;;;;;-143.49;100.00;65027.28;5077305;28;20027;-70
2023/07/13 08:04:41;;;;;;;8.75;2.90;;;;;;;-143.49;100.00;65027.28;5094607;28;20421;-71
2023/07/13 08:07:07;;;;;;;11.13;3.00;;;;;;;-143.49;100.00;65027.28;5095228;28;21394;-70
2023/07/13 08:09:33;;;;;;;8.63;3.30;;;;;;;-143.49;100.00;65027.28;5095032;28;20032;-70
2023/07/13 08:11:58;;;;;;;10.73;3.20;;;;;;;-143.49;100.00;65027.28;5095206;28;20028;-70
2023/07/13 08:14:23;;;;;;;10.82;3.58;;;;;;;-143.49;100.00;65027.28;5076017;28;20026;-70
2023/07/13 08:16:49;;;;;;;13.02;3.88;;;;;;;-143.49;100.00;65027.28;5093114;28;20115;-71
2023/07/13 08:19:15;;;;;;;13.88;3.38;;;;;;;-143.49;100.00;65027.28;5074842;28;20027;-70
2023/07/13 08:21:42;;;;;;;10.80;3.15;;;;;;;-143.49;100.00;65027.28;5074748;28;20021;-69
2023/07/13 08:24:07;;;;;;;10.88;2.90;;;;;;;-143.49;100.00;65027.28;5074941;28;20069;-71
2023/07/13 08:26:33;;;;;;;16.60;3.60;;;;;;;-143.49;100.00;65027.28;5092913;28;20313;-70
2023/07/13 08:28:58;;;;;;;11.40;3.50;;;;;;;-143.49;100.00;65027.28;5093229;28;20023;-70
2023/07/13 08:31:24;;;;;;;14.30;3.85;;;;;;;-143.49;100.00;65027.28;5095010;28;20468;-70
2023/07/13 08:33:49;;;;;;;10.57;3.85;;;;;;;-143.49;100.00;65027.28;5094829;28;20020;-70
2023/07/13 08:36:15;;;;;;;14.40;4.00;;;;;;;-143.49;100.00;65027.28;5094703;28;20493;-69
2023/07/13 08:38:40;;;;;;;8.45;2.70;;;;;;;-143.49;100.00;65027.28;5094333;28;20020;-70
2023/07/13 08:41:17;;;;;;;6.72;2.70;;;;;;;-143.49;100.00;65027.28;5094413;28;20024;-71
2023/07/13 08:43:48;;;;;;;6.38;2.05;;;;;;;-143.49;100.00;65027.28;5094342;28;20024;-70
2023/07/13 08:46:35;;;;;;;5.00;2.00;;;;;;;-143.49;100.00;65027.28;5093220;28;20028;-70
2023/07/13 08:49:22;;;;;;;4.80;2.20;;;;;;;-143.49;100.00;65027.28;5094213;28;20020;-69
2023/07/13 08:52:00;;;;;;;7.93;2.53;;;;;;;-143.49;100.00;65027.28;5094382;28;20020;-71
2023/07/13 08:54:36;;;;;;;10.23;3.00;;;;;;;-143.49;100.00;65027.28;5094735;28;20387;-70
2023/07/13 08:57:12;;;;;;;13.38;2.92;;;;;;;-143.49;100.00;65027.28;5094900;28;20099;-69
2023/07/13 08:59:38;;;;;;;8.35;2.70;;;;;;;-143.49;100.00;65027.28;5101306;28;20066;-70
2023/07/13 09:02:16;;;;;;;7.35;1.98;;;;;;;-143.49;100.00;65027.28;5076687;28;20038;-71
2023/07/13 09:05:03;;;;;;;7.95;2.45;;;;;;;-143.49;100.00;65027.28;5094573;28;20034;-70
2023/07/13 09:07:50;;;;;;;4.95;2.10;;;;;;;-143.49;100.00;65027.28;5094522;28;20090;-70
2023/07/13 09:10:37;;;;;;;4.47;1.85;;;;;;;-143.49;100.00;65027.28;5094450;28;20475;-70
2023/07/13 09:13:23;;;;;;;5.15;2.13;;;;;;;-143.49;100.00;65027.28;5094337;28;20024;-71
2023/07/13 09:15:49;;;;;;;5.53;1.95;;;;;;;-143.49;100.00;65027.28;5094410;28;20035;-71
2023/07/13 09:18:42;;;;;;;6.53;2.30;;;;;;;-143.49;100.00;65027.28;5094420;28;20024;-71
2023/07/13 09:21:15;;;;;;;7.18;2.28;;;;;;;-143.49;100.00;65027.28;5094659;28;20016;-71
2023/07/13 09:23:41;;;;;;;8.43;2.30;;;;;;;-143.49;100.00;65027.28;5076467;28;20077;-70
2023/07/13 09:26:15;;;;;;;6.38;2.13;;;;;;;-143.49;100.00;65027.28;5094330;28;20107;-71
2023/07/13 09:28:47;;;;;;;5.30;2.33;;;;;;;-143.49;100.00;65027.28;5076120;28;20132;-71
2023/07/13 09:31:23;;;;;;;7.07;2.45;;;;;;;-143.49;100.00;65027.28;5075465;28;20119;-70
2023/07/13 09:33:50;;;;;;;8.80;2.97;;;;;;;-143.49;100.00;65027.28;5094297;28;20210;-71
2023/07/13 09:36:15;;;;;;;6.00;2.40;;;;;;;-143.49;100.00;65027.28;5076282;28;20129;-71
2023/07/13 09:38:41;;;;;;;10.35;2.80;;;;;;;-143.49;100.00;65027.28;5094055;28;20060;-71
2023/07/13 09:41:21;;;;;;;9.52;2.80;;;;;;;-143.49;100.00;65027.28;5094307;28;20020;-71
2023/07/13 09:44:08;;;;;;;7.03;2.40;;;;;;;-143.49;100.00;65027.28;5094124;28;20496;-70
2023/07/13 09:46:34;;;;;;;7.03;2.60;;;;;;;-143.49;100.00;65027.28;5094027;28;20473;-70
2023/07/13 09:48:59;;;;;;;8.10;2.70;;;;;;;-143.49;100.00;65027.28;5093859;28;20032;-70
2023/07/13 09:51:25;;;;;;;8.65;2.90;;;;;;;-143.49;100.00;65027.28;5094015;28;20142;-70
2023/07/13 09:53:50;;;;;;;9.10;3.08;;;;;;;-143.49;100.00;65027.28;5075637;28;20020;-71
2023/07/13 09:56:24;;;;;;;9.23;2.83;;;;;;;-143.49;100.00;65027.28;5075849;28;20031;-70
2023/07/13 09:58:50;;;;;;;7.65;2.60;;;;;;;-143.49;100.00;65027.28;5075754;28;20024;-70
2023/07/13 10:01:30;;;;;;;10.77;2.95;;;;;;;-143.49;100.00;65027.28;5093700;28;20363;-71
2023/07/13 10:03:55;;;;;;;11.15;3.00;;;;;;;-143.49;100.00;65027.28;5093464;28;20034;-71
2023/07/13 10:06:22;;;;;;;8.73;2.50;;;;;;;-143.49;100.00;65027.28;5093727;28;20020;-71
2023/07/13 10:08:50;;;;;;;15.07;3.00;;;;;;;-143.49;100.00;65027.28;5093589;28;20510;-71
2023/07/13 10:11:31;;;;;;;13.38;3.10;;;;;;;-143.49;100.00;65027.28;5093729;28;20028;-70
2023/07/13 10:14:12;;;;;;;12.13;2.90;;;;;;;-143.49;100.00;65027.28;5075460;28;20028;-70
2023/07/13 10:16:39;;;;;;;9.90;2.35;;;;;;;-143.49;100.00;65027.28;5093379;28;20028;-70
2023/07/13 10:19:20;;;;;;;8.95;2.80;;;;;;;-143.49;100.00;65027.28;5093521;28;20059;-70
2023/07/13 10:21:55;;;;;;;10.68;2.95;;;;;;;-143.49;100.00;65027.28;5075784;28;20111;-70
2023/07/13 10:24:23;;;;;;;9.90;3.00;;;;;;;-143.49;100.00;65027.28;5097990;28;20088;-71
2023/07/13 10:27:02;;;;;;;11.40;3.00;;;;;;;-143.49;100.00;65027.28;5097960;28;20111;-70
2023/07/13 10:29:34;;;;;;;12.90;3.00;;;;;;;-143.49;100.00;65027.28;5097668;28;20020;-70
2023/07/13 10:32:00;;;;;;;9.82;3.05;;;;;;;-143.49;100.00;65027.28;5079371;28;20431;-70
2023/07/13 10:34:26;;;;;;;8.00;2.70;;;;;;;-143.49;100.00;65027.28;5097411;28;20020;-71
2023/07/13 10:36:52;;;;;;;10.10;2.50;;;;;;;-143.49;100.00;65027.28;5078974;28;20451;-70
2023/07/13 10:39:24;;;;;;;10.20;2.70;;;;;;;-143.49;100.00;65027.28;5097307;28;20054;-70
2023/07/13 10:41:58;;;;;;;14.98;2.70;;;;;;;-143.49;100.00;65027.28;5097141;28;20031;-70
2023/07/13 10:44:29;;;;;;;12.13;2.20;;;;;;;-143.49;100.00;65027.28;5097092;28;20020;-70
2023/07/13 10:47:01;;;;;;;8.75;2.63;;;;;;;-143.49;100.00;65027.28;5097331;28;20023;-70
2023/07/13 10:49:32;;;;;;;9.45;2.70;;;;;;;-143.49;100.00;65027.28;5096956;28;20027;-70
2023/07/13 10:51:58;;;;;;;8.90;2.45;;;;;;;-143.49;100.00;65027.28;5097640;28;20099;-70
2023/07/13 10:54:30;;;;;;;7.13;2.50;;;;;;;-143.49;100.00;65027.28;5097033;28;20103;-70
2023/07/13 10:57:18;;;;;;;9.05;2.78;;;;;;;-143.49;100.00;65027.28;5099920;28;20127;-71
2023/07/13 11:00:02;;;;;;;14.80;2.78;;;;;;;-143.49;100.00;65027.28;5085264;28;20116;-70
2023/07/13 11:02:28;;;;;;;9.35;2.80;;;;;;;-143.49;100.00;65027.28;5085200;28;20424;-71
2023/07/13 11:04:57;;;;;;;9.70;2.95;;;;;;;-143.49;100.00;65027.28;5103532;28;20149;-69
2023/07/13 11:07:31;;;;;;;7.88;2.45;;;;;;;-143.49;100.00;65027.28;5101866;28;20128;-70